Barro Alto, Brazil
Current Conditions -  °F | °C
As of 1:00 AM on Friday 28 Nov 2014 (Local Time) from SBAN Reporting Station
Light Rain Light Rain  
Wind Chill: 66°   Ceiling: 300
Heat Index: 66°   Visibility: 6mi
Dew Point: 64°   Wind: 3mph
Humidity: 94%   Direction: 310°NW
Pressure: 30.09"   Gusts: NA
Location:  14.97°S, 48.92°W
Report Text: SBAN 280300Z 31003KT 9999 -RA BKN003 SCT030 19/18 Q1019
Loading
Personal Weather Stations






























Interactive Weather Map New forecast layout! Learn more

10-Day Weather Forecast

Advertisements
Track Severe Weather on mobile